createdAt,value
2022-10-31T00:02:02.653Z,15.27
2022-10-31T00:04:31.743Z,14.73
2022-10-31T00:07:01.086Z,15.80
2022-10-31T00:09:30.158Z,14.17
2022-10-31T00:12:00.707Z,15.07
2022-10-31T00:14:30.059Z,13.67
2022-10-31T00:16:59.435Z,14.97
2022-10-31T00:19:28.712Z,14.10
2022-10-31T00:21:57.903Z,15.00
2022-10-31T00:24:27.052Z,15.97
2022-10-31T00:26:56.409Z,15.30
2022-10-31T00:29:27.025Z,15.70
2022-10-31T00:31:56.125Z,14.20
2022-10-31T00:34:25.257Z,14.67
2022-10-31T00:36:54.642Z,15.30
2022-10-31T00:39:23.670Z,14.80
2022-10-31T00:41:53.009Z,15.50
2022-10-31T00:44:22.122Z,14.47
2022-10-31T00:46:52.725Z,14.17
2022-10-31T00:49:24.617Z,15.10
2022-10-31T00:51:53.880Z,14.90
2022-10-31T00:54:23.303Z,15.37
2022-10-31T00:56:52.653Z,14.60
2022-10-31T00:59:21.844Z,15.43
2022-10-31T01:01:52.651Z,16.03
2022-10-31T01:04:21.854Z,15.93
2022-10-31T01:06:52.160Z,15.73
2022-10-31T01:09:21.457Z,16.40
2022-10-31T01:11:50.999Z,16.67
2022-10-31T01:14:20.215Z,17.63
2022-10-31T01:16:49.295Z,17.60
2022-10-31T01:19:20.992Z,16.23
2022-10-31T01:21:50.096Z,17.10
2022-10-31T01:24:19.261Z,16.13
2022-10-31T01:26:48.451Z,15.63
2022-10-31T01:29:17.740Z,14.90
2022-10-31T01:31:46.827Z,16.17
2022-10-31T01:34:17.849Z,15.80
2022-10-31T01:36:52.481Z,14.30
2022-10-31T01:39:22.106Z,15.17
2022-10-31T01:41:52.359Z,16.40
2022-10-31T01:44:39.899Z,14.37
2022-10-31T01:47:10.771Z,15.77
2022-10-31T01:49:41.382Z,15.43
2022-10-31T01:52:14.567Z,14.70
2022-10-31T01:54:48.875Z,15.23
2022-10-31T01:57:18.073Z,15.20
2022-10-31T01:59:50.207Z,15.70
2022-10-31T02:02:20.626Z,14.80
2022-10-31T02:04:50.773Z,15.30
2022-10-31T02:07:25.160Z,17.30
2022-10-31T02:09:54.927Z,16.73
2022-10-31T02:12:24.565Z,16.60
2022-10-31T02:14:59.641Z,14.30
2022-10-31T02:17:28.701Z,16.90
2022-10-31T02:20:04.054Z,14.43
2022-10-31T02:22:40.572Z,15.67
2022-10-31T02:25:23.032Z,14.70
2022-10-31T02:28:00.114Z,14.57
2022-10-31T02:30:34.864Z,14.97
2022-10-31T02:33:10.272Z,14.33
2022-10-31T02:35:44.115Z,13.50
2022-10-31T02:38:19.904Z,12.80
2022-10-31T02:40:52.995Z,13.77
2022-10-31T02:43:32.089Z,13.87
2022-10-31T02:46:03.957Z,13.70
2022-10-31T02:48:37.967Z,14.57
2022-10-31T02:51:07.881Z,12.83
2022-10-31T02:53:38.938Z,14.20
2022-10-31T02:56:14.631Z,15.37
2022-10-31T02:58:46.979Z,15.07
2022-10-31T03:01:23.729Z,15.33
2022-10-31T03:04:00.990Z,13.87
2022-10-31T03:06:33.898Z,14.43
2022-10-31T03:09:06.474Z,13.40
2022-10-31T03:11:38.613Z,14.63
2022-10-31T03:14:12.295Z,14.10
2022-10-31T03:16:46.091Z,13.40
2022-10-31T03:19:18.930Z,12.80
2022-10-31T03:21:49.241Z,12.13
2022-10-31T03:24:19.387Z,13.50
2022-10-31T03:26:50.624Z,11.63
2022-10-31T03:29:22.558Z,12.10
2022-10-31T03:31:55.048Z,13.17
2022-10-31T03:34:27.005Z,13.60
2022-10-31T03:36:58.347Z,14.20
2022-10-31T03:39:27.510Z,14.40
2022-10-31T03:41:57.879Z,13.00
2022-10-31T03:44:29.836Z,12.50
2022-10-31T03:47:02.874Z,12.80
2022-10-31T03:49:34.684Z,13.40
2022-10-31T03:52:05.943Z,13.67
2022-10-31T03:54:39.244Z,13.00
2022-10-31T03:57:10.393Z,13.77
2022-10-31T03:59:42.924Z,12.90
2022-10-31T04:02:14.487Z,13.07
2022-10-31T04:04:46.567Z,12.50
2022-10-31T04:07:16.316Z,11.70
2022-10-31T04:09:47.396Z,12.80
2022-10-31T04:12:17.741Z,12.23
2022-10-31T04:15:05.861Z,11.97
2022-10-31T04:17:38.026Z,12.50
2022-10-31T04:20:09.611Z,13.07
2022-10-31T04:22:38.920Z,12.73
2022-10-31T04:25:08.714Z,12.23
2022-10-31T04:27:40.206Z,12.97
2022-10-31T04:30:11.419Z,11.20
2022-10-31T04:32:43.016Z,11.10
2022-10-31T04:35:13.770Z,10.80
2022-10-31T04:37:43.394Z,12.10
2022-10-31T04:40:13.350Z,12.10
2022-10-31T04:42:45.382Z,12.50
2022-10-31T04:45:16.940Z,11.60
2022-10-31T04:47:50.630Z,11.33
2022-10-31T04:50:21.234Z,12.10
2022-10-31T04:52:50.609Z,11.97
2022-10-31T04:55:24.007Z,11.00
2022-10-31T04:58:31.706Z,11.60
2022-10-31T05:01:01.089Z,10.93
2022-10-31T05:03:30.208Z,11.13
2022-10-31T05:06:01.046Z,11.10
2022-10-31T05:08:30.682Z,10.63
2022-10-31T05:11:04.461Z,10.90
2022-10-31T05:13:34.852Z,10.07
2022-10-31T05:16:16.009Z,9.67
2022-10-31T05:18:45.512Z,8.90
2022-10-31T05:21:15.983Z,10.67
2022-10-31T05:23:53.319Z,10.13
2022-10-31T05:26:25.003Z,10.10
2022-10-31T05:28:56.000Z,9.57
2022-10-31T05:31:25.942Z,9.60
2022-10-31T05:33:56.559Z,8.83
2022-10-31T05:36:45.634Z,8.60
2022-10-31T05:39:18.037Z,10.57
2022-10-31T05:41:51.092Z,9.47
2022-10-31T05:44:29.301Z,9.80
2022-10-31T05:47:17.155Z,9.53
2022-10-31T05:49:58.312Z,8.93
2022-10-31T05:53:08.057Z,9.50
2022-10-31T05:55:41.782Z,9.30
2022-10-31T05:58:16.421Z,9.37
2022-10-31T06:00:52.858Z,9.13
2022-10-31T06:03:22.977Z,9.70
2022-10-31T06:06:03.302Z,10.10
2022-10-31T06:08:38.675Z,9.70
2022-10-31T06:11:12.831Z,9.87
2022-10-31T06:14:00.727Z,10.27
2022-10-31T06:16:59.311Z,10.37
2022-10-31T06:19:54.460Z,10.27
2022-10-31T06:22:27.513Z,11.33
2022-10-31T06:24:59.400Z,10.40
2022-10-31T06:27:34.951Z,10.80
2022-10-31T06:30:11.559Z,10.13
2022-10-31T06:32:41.154Z,10.70
2022-10-31T06:35:12.058Z,10.40
2022-10-31T06:37:44.419Z,11.57
2022-10-31T06:40:40.409Z,11.03
2022-10-31T06:43:29.417Z,11.93
2022-10-31T06:46:17.178Z,10.07
2022-10-31T06:49:01.075Z,10.33
2022-10-31T06:51:56.669Z,9.73
2022-10-31T06:54:26.177Z,10.03
2022-10-31T06:56:56.652Z,9.90
2022-10-31T06:59:26.549Z,10.77
2022-10-31T07:02:24.915Z,10.13
2022-10-31T07:04:54.713Z,10.87
2022-10-31T07:07:25.071Z,9.83
2022-10-31T07:09:54.613Z,9.37
2022-10-31T07:12:39.851Z,9.73
2022-10-31T07:15:09.694Z,8.90
2022-10-31T07:17:39.911Z,10.27
2022-10-31T07:20:11.415Z,10.37
2022-10-31T07:22:40.870Z,9.00
2022-10-31T07:25:11.831Z,9.80
2022-10-31T07:28:01.512Z,10.03
2022-10-31T07:30:31.109Z,9.87
2022-10-31T07:33:00.289Z,11.40
2022-10-31T07:35:50.045Z,10.00
2022-10-31T07:38:23.971Z,11.67
2022-10-31T07:40:54.122Z,11.40
2022-10-31T07:43:24.904Z,9.50
2022-10-31T07:46:14.093Z,10.10
2022-10-31T07:49:02.046Z,10.77
2022-10-31T07:51:50.127Z,10.00
2022-10-31T07:54:28.282Z,9.80
2022-10-31T07:56:57.702Z,9.73
2022-10-31T07:59:28.482Z,11.43
2022-10-31T08:01:57.846Z,9.97
2022-10-31T08:04:33.021Z,9.63
2022-10-31T08:07:21.154Z,10.00
2022-10-31T08:09:57.640Z,13.60
2022-10-31T08:12:31.322Z,11.23
2022-10-31T08:15:03.159Z,11.80
2022-10-31T08:17:32.534Z,10.10
2022-10-31T08:20:03.116Z,11.93
2022-10-31T08:22:41.238Z,9.97
2022-10-31T08:25:13.373Z,13.00
2022-10-31T08:27:42.516Z,9.37
2022-10-31T08:30:21.221Z,11.20
2022-10-31T08:33:13.008Z,10.73
2022-10-31T08:36:20.729Z,10.00
2022-10-31T08:39:10.213Z,8.37
2022-10-31T08:41:39.575Z,8.10
2022-10-31T08:44:13.186Z,9.20
2022-10-31T08:46:44.419Z,9.97
2022-10-31T08:49:13.748Z,8.70
2022-10-31T08:51:45.349Z,9.17
2022-10-31T08:54:14.571Z,8.93
2022-10-31T08:56:59.118Z,9.17
2022-10-31T08:59:48.104Z,8.17
2022-10-31T09:02:28.992Z,9.40
2022-10-31T09:05:01.930Z,9.20
2022-10-31T09:07:31.413Z,9.10
2022-10-31T09:10:01.845Z,9.23
2022-10-31T09:12:34.850Z,7.87
2022-10-31T09:15:44.920Z,8.50
2022-10-31T09:18:25.562Z,8.77
2022-10-31T09:21:01.042Z,8.97
2022-10-31T09:23:33.122Z,8.87
2022-10-31T09:26:04.005Z,13.03
2022-10-31T09:28:34.034Z,10.10
2022-10-31T09:31:09.119Z,10.50
2022-10-31T09:33:51.798Z,15.47
2022-10-31T09:36:39.599Z,10.17
2022-10-31T09:39:12.218Z,10.00
2022-10-31T09:41:57.496Z,8.30
2022-10-31T09:44:33.358Z,8.50
2022-10-31T09:47:07.121Z,9.17
2022-10-31T09:49:42.467Z,10.83
2022-10-31T09:52:15.025Z,9.17
2022-10-31T09:54:46.476Z,10.20
2022-10-31T09:57:16.708Z,8.90
2022-10-31T09:59:50.076Z,9.83
2022-10-31T10:02:24.687Z,7.57
2022-10-31T10:04:59.608Z,10.43
2022-10-31T10:07:35.972Z,8.40
2022-10-31T10:10:27.392Z,9.83
2022-10-31T10:13:26.543Z,8.17
2022-10-31T10:16:01.499Z,9.27
2022-10-31T10:18:33.856Z,10.07
2022-10-31T10:21:10.111Z,9.80
2022-10-31T10:23:46.410Z,9.00
2022-10-31T10:26:19.114Z,8.80
2022-10-31T10:28:50.864Z,9.47
2022-10-31T10:31:21.899Z,7.80
2022-10-31T10:33:59.323Z,9.13
2022-10-31T10:36:32.635Z,8.10
2022-10-31T10:39:03.735Z,7.03
2022-10-31T10:41:34.832Z,8.10
2022-10-31T10:44:04.509Z,9.57
2022-10-31T10:46:54.965Z,7.80
2022-10-31T10:49:28.719Z,7.80
2022-10-31T10:52:19.505Z,7.93
2022-10-31T10:54:57.996Z,7.87
2022-10-31T10:57:34.278Z,7.90
2022-10-31T11:00:05.266Z,7.53
2022-10-31T11:02:35.167Z,7.80
2022-10-31T11:05:04.887Z,8.20
2022-10-31T11:07:42.543Z,7.80
2022-10-31T11:10:16.260Z,8.87
2022-10-31T11:12:46.598Z,9.00
2022-10-31T11:15:23.284Z,9.47
2022-10-31T11:17:53.526Z,7.40
2022-10-31T11:20:32.508Z,7.00
2022-10-31T11:23:08.276Z,7.10
2022-10-31T11:25:37.609Z,9.47
2022-10-31T11:28:07.450Z,8.77
2022-10-31T11:30:39.417Z,13.20
2022-10-31T11:33:08.536Z,9.23
2022-10-31T11:35:42.309Z,8.90
2022-10-31T11:38:18.823Z,8.20
2022-10-31T11:40:58.291Z,8.70
2022-10-31T11:43:28.639Z,11.80
2022-10-31T11:45:57.806Z,10.53
2022-10-31T11:48:27.886Z,10.03
2022-10-31T11:50:58.823Z,11.63
2022-10-31T11:53:30.186Z,10.30
2022-10-31T11:56:04.484Z,10.80
2022-10-31T11:58:33.725Z,9.60
2022-10-31T12:01:02.715Z,10.23
2022-10-31T12:03:49.663Z,11.40
2022-10-31T12:06:21.729Z,12.93
2022-10-31T12:08:52.589Z,11.00
2022-10-31T12:11:30.497Z,12.60
2022-10-31T12:14:06.799Z,11.23
2022-10-31T12:16:40.012Z,11.10
2022-10-31T12:19:14.668Z,11.47
2022-10-31T12:21:55.075Z,11.80
2022-10-31T12:24:34.103Z,10.70
2022-10-31T12:27:11.413Z,10.27
2022-10-31T12:29:51.224Z,9.90
2022-10-31T12:32:30.191Z,9.83
2022-10-31T12:35:05.916Z,11.10
2022-10-31T12:37:43.409Z,10.00
2022-10-31T12:40:26.356Z,10.53
2022-10-31T12:43:00.607Z,13.20
2022-10-31T12:45:37.874Z,10.73
2022-10-31T12:48:16.604Z,9.10
2022-10-31T12:50:54.320Z,8.07
2022-10-31T12:53:29.026Z,8.37
2022-10-31T12:56:03.846Z,9.60
2022-10-31T12:58:34.994Z,8.50
2022-10-31T13:01:09.500Z,8.03
2022-10-31T13:03:42.482Z,8.70
2022-10-31T13:06:16.328Z,8.43
2022-10-31T13:08:47.340Z,7.57
2022-10-31T13:11:19.562Z,8.60
2022-10-31T13:13:52.848Z,9.20
2022-10-31T13:16:23.743Z,8.07
2022-10-31T13:18:59.729Z,9.07
2022-10-31T13:21:30.401Z,9.00
2022-10-31T13:24:02.200Z,6.90
2022-10-31T13:26:37.842Z,9.07
2022-10-31T13:29:12.458Z,9.27
2022-10-31T13:31:43.788Z,8.67
2022-10-31T13:34:19.812Z,8.90
2022-10-31T13:36:52.833Z,9.40
2022-10-31T13:39:26.499Z,10.43
2022-10-31T13:42:01.824Z,10.37
2022-10-31T13:44:37.356Z,10.43
2022-10-31T13:47:23.662Z,9.83
2022-10-31T13:49:53.230Z,10.13
2022-10-31T13:52:26.560Z,10.27
2022-10-31T13:54:59.498Z,9.83
2022-10-31T13:57:34.564Z,9.73
2022-10-31T14:00:06.044Z,9.10
2022-10-31T14:02:48.003Z,9.93
2022-10-31T14:05:25.288Z,9.07
2022-10-31T14:07:55.116Z,9.63
2022-10-31T14:10:26.040Z,8.63
2022-10-31T14:12:57.693Z,9.07
2022-10-31T14:15:27.455Z,11.37
2022-10-31T14:17:58.961Z,9.97
2022-10-31T14:20:40.318Z,10.10
2022-10-31T14:23:34.717Z,11.50
2022-10-31T14:26:19.341Z,11.10
2022-10-31T14:28:50.563Z,10.93
2022-10-31T14:31:37.597Z,11.00
2022-10-31T14:34:22.525Z,10.60
2022-10-31T14:36:58.678Z,10.40
2022-10-31T14:39:30.400Z,9.87
2022-10-31T14:42:05.599Z,10.80
2022-10-31T14:44:52.725Z,11.20
2022-10-31T14:47:27.754Z,11.10
2022-10-31T14:50:11.749Z,10.60
2022-10-31T14:52:41.348Z,13.43
2022-10-31T14:55:15.080Z,10.23
2022-10-31T14:57:48.258Z,10.60
2022-10-31T15:00:20.942Z,10.00
2022-10-31T15:02:53.652Z,10.27
2022-10-31T15:05:23.216Z,10.40
2022-10-31T15:07:53.735Z,11.90
2022-10-31T15:10:24.023Z,10.60
2022-10-31T15:12:53.013Z,10.90
2022-10-31T15:15:24.500Z,11.90
2022-10-31T15:17:56.014Z,12.00
2022-10-31T15:20:26.267Z,12.70
2022-10-31T15:22:56.756Z,12.80
2022-10-31T15:25:28.458Z,11.40
2022-10-31T15:27:57.574Z,11.07
2022-10-31T15:30:29.222Z,11.23
2022-10-31T15:32:59.346Z,12.20
2022-10-31T15:35:29.493Z,11.60
2022-10-31T15:38:00.053Z,13.80
2022-10-31T15:40:30.233Z,13.63
2022-10-31T15:43:00.929Z,14.13
2022-10-31T15:45:32.504Z,13.10
2022-10-31T15:48:04.000Z,13.60
2022-10-31T15:50:35.605Z,13.20
2022-10-31T15:53:05.614Z,14.47
2022-10-31T15:55:38.927Z,14.37
2022-10-31T15:58:13.993Z,13.70
2022-10-31T16:00:44.796Z,12.63
2022-10-31T16:03:28.598Z,14.10
2022-10-31T16:05:58.583Z,16.00
2022-10-31T16:08:29.070Z,15.30
2022-10-31T16:10:58.807Z,16.77
2022-10-31T16:13:30.133Z,16.63
2022-10-31T16:16:33.476Z,13.20
2022-10-31T16:18:52.931Z,13.57
2022-10-31T16:21:27.163Z,12.80
2022-10-31T16:23:58.526Z,14.37
2022-10-31T16:26:28.082Z,19.70
2022-10-31T16:29:03.378Z,14.93
2022-10-31T16:31:40.609Z,12.83
2022-10-31T16:34:26.521Z,16.23
2022-10-31T16:36:56.388Z,16.33
2022-10-31T16:39:25.682Z,14.23
2022-10-31T16:41:57.887Z,17.20
2022-10-31T16:44:27.813Z,14.07
2022-10-31T16:47:12.642Z,16.00
2022-10-31T16:49:41.907Z,15.60
2022-10-31T16:52:11.035Z,15.53
2022-10-31T16:54:40.514Z,14.10
2022-10-31T16:57:09.870Z,15.43
2022-10-31T16:59:39.191Z,15.10
2022-10-31T17:02:13.951Z,14.60
2022-10-31T17:04:44.870Z,16.23
2022-10-31T17:07:13.983Z,16.70
2022-10-31T17:09:43.284Z,24.80
2022-10-31T17:12:16.827Z,31.13
2022-10-31T17:14:47.914Z,30.17
2022-10-31T17:17:17.305Z,28.23
2022-10-31T17:19:47.861Z,26.40
2022-10-31T17:22:17.410Z,25.87
2022-10-31T17:24:46.880Z,28.47
2022-10-31T17:27:16.080Z,29.33
2022-10-31T17:29:45.365Z,25.13
2022-10-31T17:32:14.505Z,22.70
2022-10-31T17:34:43.768Z,25.90
2022-10-31T17:37:14.535Z,20.00
2022-10-31T17:39:43.582Z,20.03
2022-10-31T17:42:12.749Z,16.83
2022-10-31T17:44:42.262Z,16.10
2022-10-31T17:47:11.677Z,17.23
2022-10-31T17:49:40.874Z,16.03
2022-10-31T17:52:09.999Z,14.70
2022-10-31T17:54:40.483Z,14.20
2022-10-31T17:57:09.992Z,13.60
2022-10-31T17:59:39.734Z,14.63
2022-10-31T18:02:09.654Z,21.50
2022-10-31T18:04:40.674Z,14.60
2022-10-31T18:07:10.108Z,14.77
2022-10-31T18:09:40.638Z,17.10
2022-10-31T18:12:09.873Z,16.80
2022-10-31T18:14:39.089Z,22.23
2022-10-31T18:17:08.621Z,16.90
2022-10-31T18:19:37.781Z,21.00
2022-10-31T18:22:07.052Z,19.77
2022-10-31T18:24:36.114Z,26.10
2022-10-31T18:27:06.981Z,19.37
2022-10-31T18:29:36.307Z,19.37
2022-10-31T18:32:09.498Z,16.70
2022-10-31T18:34:39.267Z,12.93
2022-10-31T18:37:08.363Z,16.63
2022-10-31T18:39:37.624Z,13.70
2022-10-31T18:42:08.332Z,12.73
2022-10-31T18:44:38.426Z,14.00
2022-10-31T18:47:07.568Z,13.97
2022-10-31T18:49:37.601Z,12.77
2022-10-31T18:52:07.027Z,11.30
2022-10-31T18:54:36.299Z,13.30
2022-10-31T18:57:05.523Z,12.23
2022-10-31T18:59:36.034Z,13.40
2022-10-31T19:02:05.499Z,14.40
2022-10-31T19:04:35.741Z,13.40
2022-10-31T19:07:05.136Z,13.43
2022-10-31T19:09:35.763Z,13.67
2022-10-31T19:12:04.866Z,15.30
2022-10-31T19:14:34.033Z,12.10
2022-10-31T19:17:04.791Z,12.93
2022-10-31T19:19:33.932Z,12.50
2022-10-31T19:22:03.164Z,13.30
2022-10-31T19:24:32.322Z,11.57
2022-10-31T19:27:01.485Z,12.37
2022-10-31T19:29:30.688Z,12.63
2022-10-31T19:31:59.977Z,18.23
2022-10-31T19:34:30.524Z,12.43
2022-10-31T19:36:59.886Z,13.37
2022-10-31T19:39:29.094Z,20.33
2022-10-31T19:41:58.206Z,16.93
2022-10-31T19:44:27.333Z,16.40
2022-10-31T19:46:56.588Z,13.70
2022-10-31T19:49:25.618Z,14.57
2022-10-31T19:51:56.430Z,14.60
2022-10-31T19:54:26.387Z,14.70
2022-10-31T19:56:55.398Z,15.20
2022-10-31T19:59:25.188Z,13.33
2022-10-31T20:01:54.328Z,15.63
2022-10-31T20:04:23.518Z,15.60
2022-10-31T20:06:52.702Z,15.50
2022-10-31T20:09:23.704Z,17.60
2022-10-31T20:11:53.058Z,16.77
2022-10-31T20:14:22.254Z,18.50
2022-10-31T20:16:51.462Z,20.50
2022-10-31T20:19:20.582Z,15.57
2022-10-31T20:21:50.109Z,14.00
2022-10-31T20:24:19.293Z,14.10
2022-10-31T20:26:49.715Z,13.00
2022-10-31T20:29:19.808Z,15.80
2022-10-31T20:31:49.318Z,15.00
2022-10-31T20:34:18.404Z,19.00
2022-10-31T20:36:48.425Z,17.13
2022-10-31T20:39:17.547Z,16.03
2022-10-31T20:41:46.762Z,14.50
2022-10-31T20:44:17.334Z,13.70
2022-10-31T20:46:46.681Z,13.60
2022-10-31T20:49:15.689Z,13.20
2022-10-31T20:51:44.868Z,20.90
2022-10-31T20:54:14.852Z,16.40
2022-10-31T20:56:44.376Z,13.40
2022-10-31T20:59:15.417Z,11.37
2022-10-31T21:01:46.264Z,11.60
2022-10-31T21:04:15.514Z,18.33
2022-10-31T21:06:49.297Z,14.30
2022-10-31T21:09:19.275Z,14.50
2022-10-31T21:11:48.415Z,12.63
2022-10-31T21:14:17.430Z,13.80
2022-10-31T21:16:47.902Z,13.60
2022-10-31T21:19:17.546Z,12.60
2022-10-31T21:21:46.714Z,11.70
2022-10-31T21:26:47.910Z,13.30
2022-10-31T21:29:17.624Z,11.73
2022-10-31T21:31:48.727Z,11.90
2022-10-31T21:34:18.150Z,11.83
2022-10-31T21:36:47.378Z,11.33
2022-10-31T21:39:16.818Z,11.40
2022-10-31T21:41:45.817Z,12.60
2022-10-31T21:44:14.966Z,12.23
2022-10-31T21:46:45.168Z,10.40
2022-10-31T21:49:15.887Z,11.60
2022-10-31T21:51:47.049Z,11.90
2022-10-31T21:54:28.843Z,11.07
2022-10-31T21:56:58.790Z,11.47
2022-10-31T21:59:28.121Z,10.97
2022-10-31T22:01:59.941Z,9.63
2022-10-31T22:04:30.849Z,10.57
2022-10-31T22:06:59.999Z,9.97
2022-10-31T22:09:29.256Z,14.07
2022-10-31T22:11:59.897Z,17.50
2022-10-31T22:14:29.115Z,12.03
2022-10-31T22:16:58.597Z,10.70
2022-10-31T22:19:27.836Z,11.70
2022-10-31T22:21:58.311Z,9.67
2022-10-31T22:24:27.454Z,9.30
2022-10-31T22:26:56.708Z,9.90
2022-10-31T22:29:27.926Z,10.40
2022-10-31T22:31:59.545Z,12.47
2022-10-31T22:34:30.803Z,11.57
2022-10-31T22:37:02.322Z,9.50
2022-10-31T22:39:31.477Z,9.60
2022-10-31T22:42:00.624Z,9.27
2022-10-31T22:44:29.787Z,8.97
2022-10-31T22:46:58.891Z,10.40
2022-10-31T22:49:28.243Z,10.03
2022-10-31T22:52:00.033Z,16.37
2022-10-31T22:54:31.440Z,9.83
2022-10-31T22:57:00.568Z,13.70
2022-10-31T22:59:29.811Z,11.80
2022-10-31T23:04:54.042Z,18.60
2022-10-31T23:07:24.029Z,14.23
2022-10-31T23:09:54.755Z,10.40
2022-10-31T23:12:41.427Z,9.87
2022-10-31T23:15:10.853Z,11.43
2022-10-31T23:17:40.071Z,10.50
2022-10-31T23:20:10.028Z,10.50
2022-10-31T23:22:39.327Z,11.10
2022-10-31T23:25:10.758Z,10.20
2022-10-31T23:27:38.929Z,11.37
2022-10-31T23:30:08.573Z,10.80
2022-10-31T23:32:38.657Z,12.20
2022-10-31T23:35:08.883Z,14.57
2022-10-31T23:37:39.294Z,15.47
2022-10-31T23:40:09.523Z,14.73
2022-10-31T23:42:40.111Z,11.43
2022-10-31T23:45:09.833Z,10.37
2022-10-31T23:47:43.198Z,11.77
2022-10-31T23:50:12.786Z,10.60
2022-10-31T23:52:41.885Z,10.47
2022-10-31T23:55:11.517Z,9.80
2022-10-31T23:57:41.939Z,11.23
